New York, NY (10153)

3:01 AM EST on March 02, 2015 (GMT -0500)
Sutton East | Change Station
CLOSE
Current Station
Personal Weather Station
Location: New York, NY
Elevation: 79 ft
Nearby Weather Stations

Elev 79 ft 40.76 °N, 73.97 °W | Updated 8 minutes ago

Overcast
Overcast
32.5 °F
Feels Like 32 °F
N
1.1
Wind Variable Wind from SSE

Today
High -- | Low -- °F
--% Chance of Precip.
Yesterday
High -- | Low -- °F
Precip. -- in
6:28 AM 5:47 PM
Waxing Gibbous, 90% visible
Pressure 30.06 in
Visibility 7.0 miles
Clouds Overcast 3700 ft
Windchill 32 °F
Dew Point 28 °F
Humidity 83%
Rainfall 0.00 in
Snow Depth Not available.
UV 0 out of 12
Pollen .50 out of 12
Air Quality Not available.
Flu Activity Not available.
METAR KNYC 020751Z AUTO VRB05KT 7SM OVC037 M01/M04 A3008 RMK AO2 SLP178 T10111044

More Conditions Fewer Conditions

Pressure 30.06 in
Visibility 7.0 miles
Clouds Overcast 3700 ft
Windchill 32 °F
Dew Point 28 °F
Humidity 83%
Rainfall 0.00 in
Snow Depth Not available.
UV 0 out of 12
Pollen .50 out of 12
Air Quality Not available.
Flu Activity Not available.
METAR KNYC 020751Z AUTO VRB05KT 7SM OVC037 M01/M04 A3008 RMK AO2 SLP178 T10111044

More Conditions Fewer Conditions

10-Day Weather Forecast

Almanac

Astronomy

Mar. 02, 2015 Rise Set
Actual Time
Civil Twilight
Nautical Twilight
Astronomical Twilight
Moon
Length of Visible Light
Length of Day
Tomorrow will be .
, % of the Moon is Illuminated

Today's Extremes

State Highs State Lows

Community

WunderPhotos

Upload Photos

1,801,747 photos uploaded!

WunderBlogs® & News

Nearby

Air Quality

  Air Quality AQ Index Pollutant
Not available.

Snow Depth

Station Depth Elevation

Earthquake Activity

City Distance Mag. Time & Date
Minimum magnitude displayed is 2.5.

Coastal Water Temperatures

Place Temperature

Nearby Weather Stations